Time;durP1;ratioP1;P1;durP2;ratioP2;P2;SDS_P1;SDS_P2;PMS_P1;PMS_P2;Temp;Humidity;BMP_temperature;BMP_pressure;BME280_temperature;BME280_humidity;BME280_pressure;Samples;Min_cycle;Max_cycle;Signal;HPM_P1;HPM_P2
2023/06/01 00:00:24;;;;;;;;;;;14.10;60.90;;;;;;5088603;28;19912;-74
2023/06/01 00:02:50;;;;;;;;;;;14.00;61.00;;;;;;5088520;28;20399;-74
2023/06/01 00:05:16;;;;;;;;;;;14.00;61.00;;;;;;5088498;28;19916;-76
2023/06/01 00:07:41;;;;;;;;;;;14.00;61.00;;;;;;5088618;28;19916;-76
2023/06/01 00:10:07;;;;;;;;;;;14.10;61.00;;;;;;5088570;28;20021;-75
2023/06/01 00:12:33;;;;;;;;;;;14.10;60.90;;;;;;5088515;28;19935;-75
2023/06/01 00:14:59;;;;;;;;;;;14.10;60.90;;;;;;5088095;28;19912;-75
2023/06/01 00:17:24;;;;;;;;;;;14.00;60.80;;;;;;5088413;28;19912;-74
2023/06/01 00:19:50;;;;;;;;;;;14.00;60.90;;;;;;5088466;28;19912;-74
2023/06/01 00:22:16;;;;;;;;;;;13.90;60.90;;;;;;5088341;28;19908;-74
2023/06/01 00:24:42;;;;;;;;;;;13.80;61.00;;;;;;5088431;28;19923;-73
2023/06/01 00:27:07;;;;;;;;;;;13.60;61.00;;;;;;5088137;28;19920;-74
2023/06/01 00:29:33;;;;;;;;;;;13.50;61.30;;;;;;5088337;28;20443;-74
2023/06/01 00:31:58;;;;;;;;;;;13.50;61.30;;;;;;5088272;28;19914;-74
2023/06/01 00:34:24;;;;;;;;;;;13.60;61.30;;;;;;5088341;28;19957;-74
2023/06/01 00:36:50;;;;;;;;;;;13.70;61.20;;;;;;5088126;28;20364;-74
2023/06/01 00:39:15;;;;;;;;;;;13.70;61.10;;;;;;5088265;28;19919;-74
2023/06/01 00:41:41;;;;;;;;;;;13.70;61.00;;;;;;5088224;28;20371;-74
2023/06/01 00:44:07;;;;;;;;;;;13.70;60.90;;;;;;5086987;28;20322;-74
2023/06/01 00:46:34;;;;;;;;;;;13.70;61.00;;;;;;5088228;28;20387;-74
2023/06/01 00:48:59;;;;;;;;;;;13.50;61.00;;;;;;5088161;28;19913;-74
2023/06/01 00:51:25;;;;;;;;;;;13.50;61.20;;;;;;5088339;28;20374;-74
2023/06/01 00:53:51;;;;;;;;;;;13.50;61.20;;;;;;5088143;28;19920;-74
2023/06/01 00:56:17;;;;;;;;;;;13.50;61.20;;;;;;5087989;28;19913;-74
2023/06/01 00:58:43;;;;;;;;;;;13.50;61.20;;;;;;5087886;28;20400;-74
2023/06/01 01:01:18;;;;;;;;;;;13.50;61.10;;;;;;5087903;28;20041;-74
2023/06/01 01:03:57;;;;;;;;;;;13.50;61.10;;;;;;5087799;28;20359;-74
2023/06/01 01:06:41;;;;;;;;;;;13.40;61.00;;;;;;5087824;28;19929;-74
2023/06/01 01:09:26;;;;;;;;;;;13.40;61.10;;;;;;5086773;28;19927;-75
2023/06/01 01:12:00;;;;;;;;;;;13.30;61.20;;;;;;5087942;28;19922;-74
2023/06/01 01:14:30;;;;;;;;;;;13.20;61.20;;;;;;5087865;28;20035;-74
2023/06/01 01:17:15;;;;;;;;;;;13.10;61.30;;;;;;5087907;28;19944;-74
2023/06/01 01:19:42;;;;;;;;;;;13.20;61.40;;;;;;5085853;28;20347;-74
2023/06/01 01:22:31;;;;;;;;;;;13.30;61.30;;;;;;5087847;28;20382;-74
2023/06/01 01:25:05;;;;;;;;;;;13.30;61.10;;;;;;5077175;28;19917;-74
2023/06/01 01:27:49;;;;;;;;;;;13.40;61.10;;;;;;5089812;28;20201;-74
2023/06/01 01:30:15;;;;;;;;;;;13.40;61.00;;;;;;5090377;28;20329;-74
2023/06/01 01:32:41;;;;;;;;;;;13.40;61.00;;;;;;5091626;28;19920;-74
2023/06/01 01:35:08;;;;;;;;;;;13.30;60.90;;;;;;5091619;28;19930;-74
2023/06/01 01:37:33;;;;;;;;;;;13.20;60.90;;;;;;5091510;28;19930;-74
2023/06/01 01:39:59;;;;;;;;;;;13.10;61.00;;;;;;5091905;28;20280;-74
2023/06/01 01:42:25;;;;;;;;;;;13.10;61.10;;;;;;5091374;28;19923;-75
2023/06/01 01:44:51;;;;;;;;;;;13.10;61.10;;;;;;5091634;28;19915;-74
2023/06/01 01:47:22;;;;;;;;;;;13.10;61.10;;;;;;5091144;28;20400;-74
2023/06/01 01:49:51;;;;;;;;;;;13.10;61.00;;;;;;5091287;28;19920;-74
2023/06/01 01:52:27;;;;;;;;;;;13.00;61.00;;;;;;5091328;28;20466;-74
2023/06/01 01:54:53;;;;;;;;;;;13.00;61.10;;;;;;5091203;28;20360;-74
2023/06/01 01:57:19;;;;;;;;;;;13.00;61.10;;;;;;5091091;28;19913;-75
2023/06/01 01:59:45;;;;;;;;;;;13.00;61.10;;;;;;5091183;28;19919;-75
2023/06/01 02:02:11;;;;;;;;;;;13.00;61.20;;;;;;5090949;28;19927;-74
2023/06/01 02:04:40;;;;;;;;;;;12.90;61.30;;;;;;5091024;28;20389;-75
2023/06/01 02:07:06;;;;;;;;;;;13.00;61.10;;;;;;5090933;28;19920;-75
2023/06/01 02:09:32;;;;;;;;;;;13.00;61.10;;;;;;5090756;28;20271;-74
2023/06/01 02:11:57;;;;;;;;;;;13.00;61.00;;;;;;5090905;28;20030;-75
2023/06/01 02:14:23;;;;;;;;;;;13.00;61.00;;;;;;5091043;28;19912;-74
2023/06/01 02:16:50;;;;;;;;;;;12.90;60.90;;;;;;5090730;28;19962;-75
2023/06/01 02:19:16;;;;;;;;;;;12.90;61.00;;;;;;5090718;28;19938;-75
2023/06/01 02:21:42;;;;;;;;;;;12.80;61.00;;;;;;5090679;28;19920;-74
2023/06/01 02:24:08;;;;;;;;;;;12.80;61.10;;;;;;5090673;28;19912;-74
2023/06/01 02:26:34;;;;;;;;;;;12.70;61.00;;;;;;5089452;28;19955;-74
2023/06/01 02:29:02;;;;;;;;;;;12.70;61.10;;;;;;5090588;28;19908;-74
2023/06/01 02:31:28;;;;;;;;;;;12.60;61.10;;;;;;5090538;28;20122;-75
2023/06/01 02:33:53;;;;;;;;;;;12.60;61.10;;;;;;5090489;28;19912;-74
2023/06/01 02:36:19;;;;;;;;;;;12.50;61.10;;;;;;5090634;28;19919;-74
2023/06/01 02:38:45;;;;;;;;;;;12.40;61.20;;;;;;5090255;28;19955;-75
2023/06/01 02:41:11;;;;;;;;;;;12.30;61.30;;;;;;5089152;28;19934;-75
2023/06/01 02:43:37;;;;;;;;;;;12.20;61.30;;;;;;5090276;28;20556;-75
2023/06/01 02:46:03;;;;;;;;;;;12.10;61.30;;;;;;5090260;28;19920;-75
2023/06/01 02:48:29;;;;;;;;;;;12.10;61.40;;;;;;5090122;28;19916;-75
2023/06/01 02:50:55;;;;;;;;;;;12.00;61.40;;;;;;5089012;28;19919;-74
2023/06/01 02:53:20;;;;;;;;;;;12.00;61.50;;;;;;5090028;28;19908;-75
2023/06/01 02:55:46;;;;;;;;;;;12.00;61.50;;;;;;5090077;28;20318;-75
2023/06/01 02:58:16;;;;;;;;;;;12.10;61.60;;;;;;5088614;28;20003;-75
2023/06/01 03:00:45;;;;;;;;;;;12.20;61.50;;;;;;5090022;28;19923;-74
2023/06/01 03:03:11;;;;;;;;;;;12.30;61.40;;;;;;5089868;28;19982;-74
2023/06/01 03:05:37;;;;;;;;;;;12.30;61.30;;;;;;5089708;28;20108;-75
2023/06/01 03:08:03;;;;;;;;;;;12.40;61.30;;;;;;5089710;28;20007;-75
2023/06/01 03:10:28;;;;;;;;;;;12.40;61.20;;;;;;5089657;28;19908;-75
2023/06/01 03:12:54;;;;;;;;;;;12.50;61.20;;;;;;5089799;28;19912;-74
2023/06/01 03:15:20;;;;;;;;;;;12.50;61.20;;;;;;5089728;28;19954;-74
2023/06/01 03:17:45;;;;;;;;;;;12.50;61.10;;;;;;5089479;28;19916;-74
2023/06/01 03:20:17;;;;;;;;;;;12.50;61.10;;;;;;5071520;28;19913;-74
2023/06/01 03:22:43;;;;;;;;;;;12.50;61.20;;;;;;5089537;28;19908;-74
2023/06/01 03:25:08;;;;;;;;;;;12.40;61.20;;;;;;5089471;28;19999;-74
2023/06/01 03:27:35;;;;;;;;;;;12.40;61.20;;;;;;5089359;28;20261;-74
2023/06/01 03:30:01;;;;;;;;;;;12.40;61.30;;;;;;5089364;28;20015;-74
2023/06/01 03:32:27;;;;;;;;;;;12.40;61.30;;;;;;5089377;28;19916;-75
2023/06/01 03:34:53;;;;;;;;;;;12.50;61.30;;;;;;5089235;28;19941;-74
2023/06/01 03:37:19;;;;;;;;;;;12.50;61.20;;;;;;5089120;28;19918;-74
2023/06/01 03:39:45;;;;;;;;;;;12.40;61.20;;;;;;5089226;28;19912;-74
2023/06/01 03:42:11;;;;;;;;;;;12.40;61.10;;;;;;5089156;28;19916;-74
2023/06/01 03:44:36;;;;;;;;;;;12.40;61.10;;;;;;5089192;28;19965;-74
2023/06/01 03:47:02;;;;;;;;;;;12.40;61.20;;;;;;5088906;28;20280;-75
2023/06/01 03:49:27;;;;;;;;;;;12.40;61.20;;;;;;5088476;28;19919;-75
2023/06/01 03:51:53;;;;;;;;;;;12.50;61.20;;;;;;5088988;28;19917;-74
2023/06/01 03:54:20;;;;;;;;;;;12.50;61.20;;;;;;5088897;28;19939;-74
2023/06/01 03:56:46;;;;;;;;;;;12.60;61.30;;;;;;5088753;28;19947;-74
2023/06/01 03:59:11;;;;;;;;;;;12.60;61.30;;;;;;5088832;28;19967;-75
2023/06/01 04:01:39;;;;;;;;;;;12.70;61.40;;;;;;5087241;28;19923;-73
2023/06/01 04:04:05;;;;;;;;;;;12.70;61.40;;;;;;5088620;28;20053;-74
2023/06/01 04:06:35;;;;;;;;;;;12.80;61.60;;;;;;5088547;28;19919;-75
2023/06/01 04:09:06;;;;;;;;;;;12.90;61.50;;;;;;5088539;28;19912;-74
2023/06/01 04:11:33;;;;;;;;;;;13.00;61.50;;;;;;5088728;28;19915;-74
2023/06/01 04:13:59;;;;;;;;;;;13.20;61.40;;;;;;5088663;28;20328;-74
2023/06/01 04:16:25;;;;;;;;;;;13.40;61.30;;;;;;5088515;28;19923;-74
2023/06/01 04:18:51;;;;;;;;;;;13.50;61.30;;;;;;5088873;28;20280;-75
2023/06/01 04:21:17;;;;;;;;;;;13.60;61.30;;;;;;5088693;28;20317;-75
2023/06/01 04:23:43;;;;;;;;;;;13.80;61.30;;;;;;5088306;28;20422;-75
2023/06/01 04:26:08;;;;;;;;;;;13.90;61.20;;;;;;5088301;28;19916;-75
2023/06/01 04:28:35;;;;;;;;;;;14.00;61.20;;;;;;5088391;28;19916;-75
2023/06/01 04:31:02;;;;;;;;;;;14.10;61.10;;;;;;5086876;28;19919;-75
2023/06/01 04:33:28;;;;;;;;;;;14.20;61.10;;;;;;5088297;28;19956;-74
2023/06/01 04:35:53;;;;;;;;;;;14.20;61.10;;;;;;5088170;28;19951;-74
2023/06/01 04:38:19;;;;;;;;;;;14.10;61.50;;;;;;5088155;28;19908;-74
2023/06/01 04:40:45;;;;;;;;;;;13.90;61.10;;;;;;5088252;28;20355;-74
2023/06/01 04:43:11;;;;;;;;;;;13.90;61.30;;;;;;5088194;28;19908;-74
2023/06/01 04:45:38;;;;;;;;;;;13.80;61.40;;;;;;5088543;28;19957;-75
2023/06/01 04:48:08;;;;;;;;;;;13.80;61.40;;;;;;5088050;28;19912;-74
2023/06/01 04:50:34;;;;;;;;;;;13.80;61.40;;;;;;5088112;28;19959;-74
2023/06/01 04:53:00;;;;;;;;;;;13.80;61.40;;;;;;5087993;28;19909;-74
2023/06/01 04:55:26;;;;;;;;;;;13.80;61.40;;;;;;5086729;28;19912;-74
2023/06/01 04:57:52;;;;;;;;;;;13.80;61.40;;;;;;5087667;28;19920;-74
2023/06/01 05:00:18;;;;;;;;;;;13.80;61.40;;;;;;5087739;28;20336;-75
2023/06/01 05:02:44;;;;;;;;;;;13.80;61.40;;;;;;5090164;28;19924;-75
2023/06/01 05:05:10;;;;;;;;;;;13.80;61.60;;;;;;5092052;28;20326;-75
2023/06/01 05:07:37;;;;;;;;;;;13.80;62.10;;;;;;5091983;28;19908;-75
2023/06/01 05:10:06;;;;;;;;;;;13.80;61.60;;;;;;5091952;28;19908;-75
2023/06/01 05:12:32;;;;;;;;;;;13.70;61.60;;;;;;5091984;28;19908;-74
2023/06/01 05:14:59;;;;;;;;;;;13.70;61.60;;;;;;5091909;28;20080;-74
2023/06/01 05:17:24;;;;;;;;;;;13.70;61.60;;;;;;5091528;28;20287;-74
2023/06/01 05:19:50;;;;;;;;;;;13.70;61.60;;;;;;5091819;28;19916;-74
2023/06/01 05:22:16;;;;;;;;;;;13.70;61.60;;;;;;5091794;28;19966;-74
2023/06/01 05:24:41;;;;;;;;;;;13.80;61.70;;;;;;5091689;28;20023;-75
2023/06/01 05:27:07;;;;;;;;;;;13.80;61.60;;;;;;5091398;28;19916;-74
2023/06/01 05:29:32;;;;;;;;;;;13.90;61.60;;;;;;5091392;28;19912;-75
2023/06/01 05:31:58;;;;;;;;;;;14.00;61.50;;;;;;5091574;28;20011;-74
2023/06/01 05:34:24;;;;;;;;;;;14.10;61.40;;;;;;5091376;28;19912;-75
2023/06/01 05:36:49;;;;;;;;;;;14.10;61.40;;;;;;5091493;28;19912;-74
2023/06/01 05:39:15;;;;;;;;;;;14.10;61.40;;;;;;5091507;28;20269;-75
2023/06/01 05:41:41;;;;;;;;;;;14.10;61.40;;;;;;5091361;28;19912;-75
2023/06/01 05:44:06;;;;;;;;;;;14.30;61.70;;;;;;5091374;28;19916;-75
2023/06/01 05:46:32;;;;;;;;;;;14.50;61.50;;;;;;5091280;28;19951;-74
2023/06/01 05:48:57;;;;;;;;;;;14.60;61.40;;;;;;5091080;28;19920;-74
2023/06/01 05:51:23;;;;;;;;;;;14.70;61.40;;;;;;5091237;28;19958;-74
2023/06/01 05:53:48;;;;;;;;;;;14.70;61.40;;;;;;5089829;28;20342;-74
2023/06/01 05:56:14;;;;;;;;;;;14.90;61.50;;;;;;5091027;28;19944;-75
2023/06/01 05:58:40;;;;;;;;;;;15.50;62.10;;;;;;5090877;28;19943;-73
2023/06/01 06:01:06;;;;;;;;;;;16.80;61.50;;;;;;5090657;28;19916;-73
2023/06/01 06:03:31;;;;;;;;;;;18.00;60.60;;;;;;5090540;28;19963;-75
2023/06/01 06:05:57;;;;;;;;;;;19.00;59.90;;;;;;5090749;28;19965;-75
2023/06/01 06:08:22;;;;;;;;;;;20.00;59.30;;;;;;5090754;28;19981;-75
2023/06/01 06:10:48;;;;;;;;;;;21.00;58.80;;;;;;5090769;28;19908;-75
2023/06/01 06:13:14;;;;;;;;;;;21.80;58.20;;;;;;5090436;28;19916;-74
2023/06/01 06:15:39;;;;;;;;;;;22.20;58.10;;;;;;5090400;28;20365;-75
2023/06/01 06:18:05;;;;;;;;;;;22.40;58.10;;;;;;5090357;28;19908;-75
2023/06/01 06:20:31;;;;;;;;;;;22.60;58.40;;;;;;5090532;28;19919;-75
2023/06/01 06:22:56;;;;;;;;;;;22.90;58.60;;;;;;5090530;28;19931;-75
2023/06/01 06:25:22;;;;;;;;;;;23.40;58.50;;;;;;5090224;28;19912;-75
2023/06/01 06:27:48;;;;;;;;;;;23.70;58.20;;;;;;5089994;28;19924;-75
2023/06/01 06:30:14;;;;;;;;;;;23.90;58.40;;;;;;5090200;28;20356;-75
2023/06/01 06:32:39;;;;;;;;;;;24.10;58.20;;;;;;5090090;28;19919;-75
2023/06/01 06:35:05;;;;;;;;;;;24.10;58.60;;;;;;5090040;28;19958;-74
2023/06/01 06:37:31;;;;;;;;;;;24.10;58.70;;;;;;5089744;28;19912;-75
2023/06/01 06:39:56;;;;;;;;;;;24.00;58.90;;;;;;5090251;28;19958;-74
2023/06/01 06:42:23;;;;;;;;;;;24.10;59.20;;;;;;5090127;28;19912;-75
2023/06/01 06:44:48;;;;;;;;;;;24.40;59.40;;;;;;5090002;28;20324;-74
2023/06/01 06:47:18;;;;;;;;;;;25.10;59.40;;;;;;5089913;28;19927;-75
2023/06/01 06:49:44;;;;;;;;;;;25.50;59.30;;;;;;5089803;28;19913;-75
2023/06/01 06:52:10;;;;;;;;;;;26.00;58.70;;;;;;5089905;28;20516;-75
2023/06/01 06:54:36;;;;;;;;;;;25.50;58.80;;;;;;5088556;28;19912;-74
2023/06/01 06:57:03;;;;;;;;;;;24.60;58.70;;;;;;5089567;28;20313;-75
2023/06/01 06:59:28;;;;;;;;;;;23.60;59.20;;;;;;5089478;28;20021;-74
2023/06/01 07:01:54;;;;;;;;;;;22.80;60.10;;;;;;5089280;28;19986;-75
2023/06/01 07:04:20;;;;;;;;;;;22.00;60.70;;;;;;5089442;28;20312;-75
2023/06/01 07:06:46;;;;;;;;;;;21.40;61.30;;;;;;5089103;28;19920;-75
2023/06/01 07:09:11;;;;;;;;;;;21.00;61.50;;;;;;5089784;28;19919;-75
2023/06/01 07:11:37;;;;;;;;;;;20.70;61.70;;;;;;5090213;28;20408;-74
2023/06/01 07:14:02;;;;;;;;;;;21.00;62.70;;;;;;5090144;28;19916;-74
2023/06/01 07:16:29;;;;;;;;;;;21.80;62.10;;;;;;5090305;28;19966;-74
2023/06/01 07:18:56;;;;;;;;;;;22.80;62.10;;;;;;5089697;28;19950;-74
2023/06/01 07:21:21;;;;;;;;;;;23.70;61.20;;;;;;5087522;28;20292;-74
2023/06/01 07:23:47;;;;;;;;;;;24.10;61.20;;;;;;5088734;28;19913;-74
2023/06/01 07:26:13;;;;;;;;;;;24.80;60.80;;;;;;5088203;28;20007;-74
2023/06/01 07:28:38;;;;;;;;;;;24.60;59.60;;;;;;5088773;28;19908;-74
2023/06/01 07:31:04;;;;;;;;;;;23.80;59.90;;;;;;5088654;28;20374;-74
2023/06/01 07:33:30;;;;;;;;;;;23.00;60.60;;;;;;5088483;28;19916;-74
2023/06/01 07:35:57;;;;;;;;;;;22.40;60.90;;;;;;5089728;28;19994;-74
2023/06/01 07:38:23;;;;;;;;;;;21.90;61.50;;;;;;5088557;28;20328;-74
2023/06/01 07:40:50;;;;;;;;;;;21.50;62.00;;;;;;5088282;28;19943;-73
2023/06/01 07:43:15;;;;;;;;;;;21.50;62.40;;;;;;5088265;28;19908;-73
2023/06/01 07:45:41;;;;;;;;;;;21.50;62.70;;;;;;5086900;28;19926;-68
2023/06/01 07:48:06;;;;;;;;;;;21.70;62.40;;;;;;5088103;28;20344;-74
2023/06/01 07:50:32;;;;;;;;;;;21.60;62.00;;;;;;5088566;28;19919;-74
2023/06/01 07:52:58;;;;;;;;;;;21.60;62.70;;;;;;5088457;28;19920;-73
2023/06/01 07:55:24;;;;;;;;;;;22.00;63.10;;;;;;5088413;28;20365;-73
2023/06/01 07:57:50;;;;;;;;;;;22.80;62.60;;;;;;5088216;28;19912;-74
2023/06/01 08:00:17;;;;;;;;;;;23.60;61.80;;;;;;5088245;28;19919;-74
2023/06/01 08:02:43;;;;;;;;;;;24.00;61.30;;;;;;5088039;28;19920;-74
2023/06/01 08:05:10;;;;;;;;;;;24.50;61.60;;;;;;5089312;28;19998;-74
2023/06/01 08:07:37;;;;;;;;;;;25.20;61.50;;;;;;5088857;28;20002;-74
2023/06/01 08:10:06;;;;;;;;;;;25.70;61.50;;;;;;5089046;28;20227;-74
2023/06/01 08:12:32;;;;;;;;;;;26.20;61.40;;;;;;5086056;28;19912;-74
2023/06/01 08:14:58;;;;;;;;;;;26.90;61.70;;;;;;5088323;28;19924;-74
2023/06/01 08:17:24;;;;;;;;;;;27.40;61.60;;;;;;5088400;28;19912;-74
2023/06/01 08:19:49;;;;;;;;;;;27.30;61.30;;;;;;5088186;28;20018;-74
2023/06/01 08:22:16;;;;;;;;;;;27.20;61.20;;;;;;5088452;28;20074;-74
2023/06/01 08:24:42;;;;;;;;;;;27.10;61.50;;;;;;5087942;28;19919;-75
2023/06/01 08:27:18;;;;;;;;;;;27.30;61.80;;;;;;5086698;28;19920;-75
2023/06/01 08:29:45;;;;;;;;;;;27.80;61.80;;;;;;5088404;28;19908;-76
2023/06/01 08:32:11;;;;;;;;;;;27.40;61.10;;;;;;5088520;28;19908;-75
2023/06/01 08:34:36;;;;;;;;;;;27.00;61.40;;;;;;5087796;28;19912;-75
2023/06/01 08:37:02;;;;;;;;;;;27.20;62.00;;;;;;5086031;28;20097;-75
2023/06/01 08:39:28;;;;;;;;;;;27.20;61.90;;;;;;5087430;28;20390;-74
2023/06/01 08:42:02;;;;;;;;;;;27.50;62.40;;;;;;5087946;28;20025;-75
2023/06/01 08:44:29;;;;;;;;;;;28.40;62.60;;;;;;5087814;28;19916;-74
2023/06/01 08:46:56;;;;;;;;;;;29.00;62.10;;;;;;5087689;28;19995;-75
2023/06/01 08:49:24;;;;;;;;;;;29.30;62.50;;;;;;5086441;28;20333;-75
2023/06/01 08:51:51;;;;;;;;;;;29.50;62.60;;;;;;5086964;28;19940;-75
2023/06/01 08:54:16;;;;;;;;;;;29.60;62.60;;;;;;5087449;28;19952;-75
2023/06/01 08:56:42;;;;;;;;;;;29.50;62.70;;;;;;5086897;28;19967;-75
2023/06/01 08:59:10;;;;;;;;;;;29.60;63.00;;;;;;5087049;28;19919;-75
2023/06/01 09:01:37;;;;;;;;;;;30.00;63.30;;;;;;5087805;28;19953;-71
2023/06/01 09:04:03;;;;;;;;;;;30.30;62.80;;;;;;5088370;28;19912;-72
2023/06/01 09:06:29;;;;;;;;;;;30.10;62.60;;;;;;5086895;28;19926;-72
2023/06/01 09:08:55;;;;;;;;;;;29.80;62.50;;;;;;5087527;28;19912;-71
2023/06/01 09:11:20;;;;;;;;;;;29.50;63.30;;;;;;5087676;28;19935;-71
2023/06/01 09:13:46;;;;;;;;;;;29.60;63.90;;;;;;5087407;28;20253;-72
2023/06/01 09:16:12;;;;;;;;;;;29.70;63.90;;;;;;5087908;28;19912;-71
2023/06/01 09:18:49;;;;;;;;;;;29.80;64.00;;;;;;5088119;28;19981;-72
2023/06/01 09:21:15;;;;;;;;;;;29.80;63.60;;;;;;5085068;28;19920;-72
2023/06/01 09:23:42;;;;;;;;;;;29.80;63.80;;;;;;5085652;28;19912;-72
2023/06/01 09:26:14;;;;;;;;;;;30.10;64.60;;;;;;5087135;28;19932;-73
2023/06/01 09:28:55;;;;;;;;;;;30.80;64.40;;;;;;5087037;28;19916;-72
2023/06/01 09:31:40;;;;;;;;;;;31.50;64.10;;;;;;5084525;28;19915;-72
2023/06/01 09:34:06;;;;;;;;;;;31.70;63.80;;;;;;5087400;28;20284;-72
2023/06/01 09:36:32;;;;;;;;;;;32.10;64.00;;;;;;5086396;28;19999;-71
2023/06/01 09:39:01;;;;;;;;;;;32.30;63.80;;;;;;5087600;28;19970;-73
2023/06/01 09:41:31;;;;;;;;;;;32.20;63.80;;;;;;5087385;28;20373;-72
2023/06/01 09:43:57;;;;;;;;;;;32.10;64.10;;;;;;5086438;28;19916;-72
2023/06/01 09:46:22;;;;;;;;;;;32.20;64.80;;;;;;5086403;28;19957;-72
2023/06/01 09:48:49;;;;;;;;;;;32.50;64.60;;;;;;5086633;28;20029;-72
2023/06/01 09:51:29;;;;;;;;;;;32.10;64.10;;;;;;5090727;28;19907;-72
2023/06/01 09:53:54;;;;;;;;;;;31.90;64.80;;;;;;5089294;28;19935;-72
2023/06/01 09:56:20;;;;;;;;;;;31.90;64.50;;;;;;5090418;28;19912;-72
2023/06/01 09:58:45;;;;;;;;;;;31.30;64.40;;;;;;5089015;28;19920;-72
2023/06/01 10:01:12;;;;;;;;;;;30.80;65.10;;;;;;5090278;28;19908;-72
2023/06/01 10:03:42;;;;;;;;;;;30.80;65.50;;;;;;5090732;28;19931;-72
2023/06/01 10:06:10;;;;;;;;;;;31.10;65.30;;;;;;5088718;28;20305;-71
2023/06/01 10:08:36;;;;;;;;;;;31.20;64.80;;;;;;5090900;28;19915;-71
2023/06/01 10:11:01;;;;;;;;;;;31.20;64.90;;;;;;5090814;28;19916;-71
2023/06/01 10:13:28;;;;;;;;;;;31.20;64.80;;;;;;5089707;28;20339;-71
2023/06/01 10:15:54;;;;;;;;;;;30.90;64.90;;;;;;5090903;28;20042;-71
2023/06/01 10:18:21;;;;;;;;;;;30.60;65.00;;;;;;5090923;28;19988;-72
2023/06/01 10:20:46;;;;;;;;;;;30.50;65.10;;;;;;5090945;28;19920;-71
2023/06/01 10:23:12;;;;;;;;;;;30.50;65.20;;;;;;5090734;28;19912;-70
2023/06/01 10:25:43;;;;;;;;;;;30.60;65.20;;;;;;5090595;28;20014;-75
2023/06/01 10:28:10;;;;;;;;;;;30.80;65.20;;;;;;5090809;28;19943;-74
2023/06/01 10:30:35;;;;;;;;;;;30.70;64.90;;;;;;5090930;28;19915;-70
2023/06/01 10:33:01;;;;;;;;;;;30.50;65.20;;;;;;5090862;28;20011;-71
2023/06/01 10:35:30;;;;;;;;;;;30.20;65.40;;;;;;5090262;28;19923;-73
2023/06/01 10:38:12;;;;;;;;;;;30.30;65.70;;;;;;5090187;28;19915;-72
2023/06/01 10:40:41;;;;;;;;;;;30.20;65.20;;;;;;5090329;28;19916;-72
2023/06/01 10:43:08;;;;;;;;;;;29.70;65.60;;;;;;5089875;28;19912;-69
2023/06/01 10:45:34;;;;;;;;;;;29.80;66.20;;;;;;5090032;28;20420;-73
2023/06/01 10:48:00;;;;;;;;;;;30.40;66.50;;;;;;5090208;28;20002;-74
2023/06/01 10:50:26;;;;;;;;;;;31.20;66.10;;;;;;5090567;28;19919;-73
2023/06/01 10:52:53;;;;;;;;;;;31.90;65.40;;;;;;5089930;28;19913;-74
2023/06/01 10:55:19;;;;;;;;;;;32.30;65.00;;;;;;5090194;28;19943;-73
2023/06/01 10:57:46;;;;;;;;;;;32.50;64.40;;;;;;5090265;28;19915;-74
2023/06/01 11:00:17;;;;;;;;;;;32.10;64.30;;;;;;5089558;28;19908;-72
2023/06/01 11:02:48;;;;;;;;;;;31.50;64.70;;;;;;5089588;28;19927;-72
2023/06/01 11:05:32;;;;;;;;;;;31.20;65.70;;;;;;5090081;28;19950;-72
2023/06/01 11:07:58;;;;;;;;;;;31.30;65.80;;;;;;5088973;28;19920;-73
2023/06/01 11:10:42;;;;;;;;;;;31.40;65.70;;;;;;5090115;28;20403;-73
2023/06/01 11:13:11;;;;;;;;;;;31.70;65.60;;;;;;5089971;28;20007;-73
2023/06/01 11:15:38;;;;;;;;;;;31.80;65.40;;;;;;5087140;28;19908;-72
2023/06/01 11:18:23;;;;;;;;;;;31.50;65.00;;;;;;5089622;28;19916;-73
2023/06/01 11:20:49;;;;;;;;;;;31.20;65.30;;;;;;5089489;28;20367;-75
2023/06/01 11:23:15;;;;;;;;;;;31.20;65.80;;;;;;5090079;28;19913;-71
2023/06/01 11:25:42;;;;;;;;;;;31.10;65.30;;;;;;5089714;28;19974;-72
2023/06/01 11:28:08;;;;;;;;;;;30.80;66.20;;;;;;5089564;28;19984;-71
2023/06/01 11:30:35;;;;;;;;;;;30.80;65.80;;;;;;5089612;28;19912;-72
2023/06/01 11:33:02;;;;;;;;;;;31.00;65.80;;;;;;5089301;28;19908;-72
2023/06/01 11:35:28;;;;;;;;;;;31.20;65.30;;;;;;5089922;28;19916;-72
2023/06/01 11:37:54;;;;;;;;;;;31.20;65.20;;;;;;5089567;28;20151;-73
2023/06/01 11:40:20;;;;;;;;;;;31.10;65.50;;;;;;5089320;28;19908;-70
2023/06/01 11:42:46;;;;;;;;;;;31.00;65.60;;;;;;5089151;28;19912;-70
2023/06/01 11:45:16;;;;;;;;;;;31.10;65.70;;;;;;5088865;28;19912;-73
2023/06/01 11:47:43;;;;;;;;;;;30.70;65.50;;;;;;5088779;28;19923;-71
2023/06/01 11:50:19;;;;;;;;;;;30.50;66.30;;;;;;5088968;28;19943;-70
2023/06/01 11:52:45;;;;;;;;;;;30.50;66.10;;;;;;5089121;28;19999;-70
2023/06/01 11:55:11;;;;;;;;;;;30.70;66.40;;;;;;5088749;28;20003;-69
2023/06/01 11:57:40;;;;;;;;;;;30.70;65.60;;;;;;5087257;28;19954;-69
2023/06/01 12:00:12;;;;;;;;;;;30.50;65.70;;;;;;5087163;28;19992;-69
2023/06/01 12:02:38;;;;;;;;;;;30.30;65.40;;;;;;5088521;28;19920;-70
2023/06/01 12:05:13;;;;;;;;;;;30.00;65.70;;;;;;5088647;28;20387;-73
2023/06/01 12:07:50;;;;;;;;;;;29.80;65.90;;;;;;5088463;28;19916;-72
2023/06/01 12:10:19;;;;;;;;;;;30.00;65.60;;;;;;5087308;28;20189;-70
2023/06/01 12:12:45;;;;;;;;;;;29.70;65.20;;;;;;5088785;28;19958;-71
2023/06/01 12:15:11;;;;;;;;;;;29.30;65.10;;;;;;5088691;28;19912;-71
2023/06/01 12:17:46;;;;;;;;;;;29.00;65.60;;;;;;5088710;28;19965;-70
2023/06/01 12:20:12;;;;;;;;;;;29.00;66.00;;;;;;5087647;28;19987;-70
2023/06/01 12:22:38;;;;;;;;;;;28.90;65.50;;;;;;5088428;28;20368;-71
2023/06/01 12:25:08;;;;;;;;;;;28.80;65.80;;;;;;5088077;28;19955;-70
2023/06/01 12:27:37;;;;;;;;;;;28.80;65.90;;;;;;5087493;28;20296;-71
2023/06/01 12:30:03;;;;;;;;;;;29.20;66.10;;;;;;5086946;28;19912;-70
2023/06/01 12:32:38;;;;;;;;;;;29.50;65.70;;;;;;5088290;28;20364;-71
2023/06/01 12:35:04;;;;;;;;;;;29.60;65.40;;;;;;5087308;28;19918;-73
2023/06/01 12:37:30;;;;;;;;;;;29.20;65.00;;;;;;5088345;28;19965;-69
2023/06/01 12:39:56;;;;;;;;;;;28.80;64.90;;;;;;5088388;28;20273;-70
2023/06/01 12:42:37;;;;;;;;;;;28.30;65.10;;;;;;5088550;28;19934;-70
2023/06/01 12:45:09;;;;;;;;;;;27.90;65.20;;;;;;5088324;28;19909;-69
2023/06/01 12:47:39;;;;;;;;;;;27.60;65.40;;;;;;5070156;28;19927;-70
2023/06/01 12:50:05;;;;;;;;;;;27.50;65.20;;;;;;5088090;28;19936;-70
2023/06/01 12:52:31;;;;;;;;;;;27.30;65.50;;;;;;5088552;28;19912;-69
2023/06/01 12:54:57;;;;;;;;;;;27.20;65.40;;;;;;5088515;28;20094;-69
2023/06/01 12:57:22;;;;;;;;;;;27.30;65.30;;;;;;5088397;28;19924;-70
2023/06/01 12:59:48;;;;;;;;;;;27.20;64.80;;;;;;5088222;28;19922;-70
2023/06/01 13:02:14;;;;;;;;;;;27.20;65.20;;;;;;5087184;28;19936;-70
2023/06/01 13:04:40;;;;;;;;;;;27.40;65.00;;;;;;5087943;28;19960;-71
2023/06/01 13:07:06;;;;;;;;;;;27.40;64.80;;;;;;5087730;28;19916;-70
2023/06/01 13:09:32;;;;;;;;;;;27.20;64.70;;;;;;5088066;28;19916;-69
2023/06/01 13:11:58;;;;;;;;;;;26.80;64.80;;;;;;5087973;28;20022;-71
2023/06/01 13:14:23;;;;;;;;;;;26.40;64.80;;;;;;5088419;28;19920;-73
2023/06/01 13:16:49;;;;;;;;;;;26.10;64.90;;;;;;5086712;28;19977;-70
2023/06/01 13:19:15;;;;;;;;;;;25.80;65.10;;;;;;5087198;28;19912;-69
2023/06/01 13:21:40;;;;;;;;;;;25.60;64.10;;;;;;5088367;28;19943;-71
2023/06/01 13:24:06;;;;;;;;;;;25.20;63.80;;;;;;5090987;28;20014;-71
2023/06/01 13:26:32;;;;;;;;;;;24.90;63.70;;;;;;5091933;28;19913;-69
2023/06/01 13:28:57;;;;;;;;;;;24.60;63.60;;;;;;5090231;28;19920;-70
2023/06/01 13:31:23;;;;;;;;;;;24.20;63.30;;;;;;5091568;28;19919;-69
2023/06/01 13:33:49;;;;;;;;;;;23.90;63.60;;;;;;5091664;28;19919;-70
2023/06/01 13:36:15;;;;;;;;;;;23.60;63.70;;;;;;5091625;28;20268;-70
2023/06/01 13:38:40;;;;;;;;;;;23.30;63.60;;;;;;5090789;28;19923;-69
2023/06/01 13:41:06;;;;;;;;;;;23.10;63.70;;;;;;5091482;28;19924;-70
2023/06/01 13:43:31;;;;;;;;;;;23.10;63.90;;;;;;5091567;28;20368;-70
2023/06/01 13:45:57;;;;;;;;;;;23.10;63.50;;;;;;5091583;28;20299;-70
2023/06/01 13:48:23;;;;;;;;;;;23.00;63.20;;;;;;5091520;28;19954;-70
2023/06/01 13:50:48;;;;;;;;;;;22.80;63.10;;;;;;5091238;28;19908;-70
2023/06/01 13:53:14;;;;;;;;;;;22.60;63.10;;;;;;5091209;28;19913;-70
2023/06/01 13:55:40;;;;;;;;;;;22.40;63.10;;;;;;5091083;28;20018;-70
2023/06/01 13:58:06;;;;;;;;;;;22.50;63.20;;;;;;5091228;28;20390;-70
2023/06/01 14:00:31;;;;;;;;;;;22.50;62.90;;;;;;5089751;28;19916;-70
2023/06/01 14:02:57;;;;;;;;;;;22.50;62.90;;;;;;5090946;28;19924;-71
2023/06/01 14:05:22;;;;;;;;;;;22.30;62.70;;;;;;5091249;28;20340;-71
2023/06/01 14:07:48;;;;;;;;;;;22.10;63.00;;;;;;5091259;28;19925;-70
2023/06/01 14:10:14;;;;;;;;;;;22.10;62.90;;;;;;5089895;28;20396;-70
2023/06/01 14:12:40;;;;;;;;;;;22.00;63.20;;;;;;5091229;28;19916;-70
2023/06/01 14:15:06;;;;;;;;;;;21.90;62.70;;;;;;5091054;28;19908;-71